sensor_id;sensor_type;location;lat;lon;timestamp;P1;durP1;ratioP1;P2;durP2;ratioP2
7563;SDS011;3823;53.586;10.040;2022-12-18T00:01:05;32.90;;;16.57;;
7563;SDS011;3823;53.586;10.040;2022-12-18T00:03:40;30.10;;;16.10;;
7563;SDS011;3823;53.586;10.040;2022-12-18T00:06:05;24.17;;;14.60;;
7563;SDS011;3823;53.586;10.040;2022-12-18T00:08:31;23.40;;;14.47;;
7563;SDS011;3823;53.586;10.040;2022-12-18T00:11:02;27.40;;;14.37;;
7563;SDS011;3823;53.586;10.040;2022-12-18T00:13:32;29.67;;;16.20;;
7563;SDS011;3823;53.586;10.040;2022-12-18T00:16:04;24.77;;;15.00;;
7563;SDS011;3823;53.586;10.040;2022-12-18T00:18:31;29.37;;;15.07;;
7563;SDS011;3823;53.586;10.040;2022-12-18T00:21:01;27.10;;;15.30;;
7563;SDS011;3823;53.586;10.040;2022-12-18T00:23:28;24.47;;;15.10;;
7563;SDS011;3823;53.586;10.040;2022-12-18T00:25:58;25.20;;;15.27;;
7563;SDS011;3823;53.586;10.040;2022-12-18T00:28:28;29.90;;;15.93;;
7563;SDS011;3823;53.586;10.040;2022-12-18T00:31:04;24.87;;;13.63;;
7563;SDS011;3823;53.586;10.040;2022-12-18T00:33:31;22.20;;;14.27;;
7563;SDS011;3823;53.586;10.040;2022-12-18T00:36:05;30.00;;;14.60;;
7563;SDS011;3823;53.586;10.040;2022-12-18T00:38:33;26.63;;;13.13;;
7563;SDS011;3823;53.586;10.040;2022-12-18T00:40:59;23.17;;;15.40;;
7563;SDS011;3823;53.586;10.040;2022-12-18T00:43:25;22.77;;;15.30;;
7563;SDS011;3823;53.586;10.040;2022-12-18T00:45:50;25.90;;;15.40;;
7563;SDS011;3823;53.586;10.040;2022-12-18T00:48:16;29.17;;;15.30;;
7563;SDS011;3823;53.586;10.040;2022-12-18T00:50:42;18.90;;;12.93;;
7563;SDS011;3823;53.586;10.040;2022-12-18T00:53:10;23.47;;;13.57;;
7563;SDS011;3823;53.586;10.040;2022-12-18T00:55:39;25.77;;;15.43;;
7563;SDS011;3823;53.586;10.040;2022-12-18T00:58:06;25.20;;;14.93;;
7563;SDS011;3823;53.586;10.040;2022-12-18T01:00:33;31.40;;;15.07;;
7563;SDS011;3823;53.586;10.040;2022-12-18T01:02:59;23.90;;;13.60;;
7563;SDS011;3823;53.586;10.040;2022-12-18T01:05:24;23.30;;;14.50;;
7563;SDS011;3823;53.586;10.040;2022-12-18T01:07:50;22.57;;;14.20;;
7563;SDS011;3823;53.586;10.040;2022-12-18T01:10:16;23.30;;;13.17;;
7563;SDS011;3823;53.586;10.040;2022-12-18T01:12:42;27.97;;;13.70;;
7563;SDS011;3823;53.586;10.040;2022-12-18T01:15:08;22.10;;;13.47;;
7563;SDS011;3823;53.586;10.040;2022-12-18T01:17:34;24.67;;;15.00;;
7563;SDS011;3823;53.586;10.040;2022-12-18T01:20:00;28.20;;;14.90;;
7563;SDS011;3823;53.586;10.040;2022-12-18T01:22:26;25.83;;;13.77;;
7563;SDS011;3823;53.586;10.040;2022-12-18T01:24:52;26.90;;;14.70;;
7563;SDS011;3823;53.586;10.040;2022-12-18T01:27:17;29.73;;;14.97;;
7563;SDS011;3823;53.586;10.040;2022-12-18T01:29:43;21.07;;;12.33;;
7563;SDS011;3823;53.586;10.040;2022-12-18T01:32:08;20.80;;;12.70;;
7563;SDS011;3823;53.586;10.040;2022-12-18T01:34:35;20.90;;;12.00;;
7563;SDS011;3823;53.586;10.040;2022-12-18T01:37:02;23.77;;;12.73;;
7563;SDS011;3823;53.586;10.040;2022-12-18T01:39:28;22.47;;;13.30;;
7563;SDS011;3823;53.586;10.040;2022-12-18T01:41:54;24.87;;;12.83;;
7563;SDS011;3823;53.586;10.040;2022-12-18T01:50:10;21.70;;;12.67;;
7563;SDS011;3823;53.586;10.040;2022-12-18T01:52:42;17.03;;;11.37;;
7563;SDS011;3823;53.586;10.040;2022-12-18T01:55:11;20.40;;;12.73;;
7563;SDS011;3823;53.586;10.040;2022-12-18T01:57:39;25.93;;;14.37;;
7563;SDS011;3823;53.586;10.040;2022-12-18T02:00:11;22.13;;;12.20;;
7563;SDS011;3823;53.586;10.040;2022-12-18T02:02:43;25.03;;;12.20;;
7563;SDS011;3823;53.586;10.040;2022-12-18T02:05:10;20.87;;;13.20;;
7563;SDS011;3823;53.586;10.040;2022-12-18T02:10:43;28.13;;;12.00;;
7563;SDS011;3823;53.586;10.040;2022-12-18T02:13:32;17.93;;;11.90;;
7563;SDS011;3823;53.586;10.040;2022-12-18T02:18:56;19.83;;;11.60;;
7563;SDS011;3823;53.586;10.040;2022-12-18T02:24:02;21.47;;;12.60;;
7563;SDS011;3823;53.586;10.040;2022-12-18T02:26:46;24.40;;;12.13;;
7563;SDS011;3823;53.586;10.040;2022-12-18T02:29:38;29.03;;;12.33;;
7563;SDS011;3823;53.586;10.040;2022-12-18T02:32:09;21.20;;;11.30;;
7563;SDS011;3823;53.586;10.040;2022-12-18T02:34:39;18.23;;;11.77;;
7563;SDS011;3823;53.586;10.040;2022-12-18T02:37:08;20.87;;;12.30;;
7563;SDS011;3823;53.586;10.040;2022-12-18T02:39:38;19.80;;;11.60;;
7563;SDS011;3823;53.586;10.040;2022-12-18T02:42:06;19.87;;;11.23;;
7563;SDS011;3823;53.586;10.040;2022-12-18T02:44:41;21.17;;;12.80;;
7563;SDS011;3823;53.586;10.040;2022-12-18T02:47:09;20.50;;;11.63;;
7563;SDS011;3823;53.586;10.040;2022-12-18T02:49:53;17.17;;;11.37;;
7563;SDS011;3823;53.586;10.040;2022-12-18T02:55:13;19.53;;;12.00;;
7563;SDS011;3823;53.586;10.040;2022-12-18T02:57:51;18.77;;;12.17;;
7563;SDS011;3823;53.586;10.040;2022-12-18T03:00:32;20.33;;;12.23;;
7563;SDS011;3823;53.586;10.040;2022-12-18T03:03:05;22.13;;;11.50;;
7563;SDS011;3823;53.586;10.040;2022-12-18T03:08:24;22.43;;;10.70;;
7563;SDS011;3823;53.586;10.040;2022-12-18T03:10:58;25.50;;;12.53;;
7563;SDS011;3823;53.586;10.040;2022-12-18T03:15:59;20.03;;;13.10;;
7563;SDS011;3823;53.586;10.040;2022-12-18T03:18:29;16.43;;;11.30;;
7563;SDS011;3823;53.586;10.040;2022-12-18T03:21:00;23.00;;;12.10;;
7563;SDS011;3823;53.586;10.040;2022-12-18T03:23:33;22.50;;;11.40;;
7563;SDS011;3823;53.586;10.040;2022-12-18T03:26:13;19.00;;;10.40;;
7563;SDS011;3823;53.586;10.040;2022-12-18T03:28:42;17.77;;;11.63;;
7563;SDS011;3823;53.586;10.040;2022-12-18T03:31:11;18.90;;;11.03;;
7563;SDS011;3823;53.586;10.040;2022-12-18T03:33:41;19.77;;;10.33;;
7563;SDS011;3823;53.586;10.040;2022-12-18T03:36:10;19.07;;;10.70;;
7563;SDS011;3823;53.586;10.040;2022-12-18T03:38:36;14.30;;;9.50;;
7563;SDS011;3823;53.586;10.040;2022-12-18T03:41:04;16.77;;;11.43;;
7563;SDS011;3823;53.586;10.040;2022-12-18T03:46:14;14.63;;;10.03;;
7563;SDS011;3823;53.586;10.040;2022-12-18T03:48:52;18.97;;;10.50;;
7563;SDS011;3823;53.586;10.040;2022-12-18T03:54:08;16.93;;;9.37;;
7563;SDS011;3823;53.586;10.040;2022-12-18T03:56:38;21.53;;;11.80;;
7563;SDS011;3823;53.586;10.040;2022-12-18T03:59:09;14.30;;;9.80;;
7563;SDS011;3823;53.586;10.040;2022-12-18T04:01:38;20.80;;;11.23;;
7563;SDS011;3823;53.586;10.040;2022-12-18T04:04:07;17.73;;;10.23;;
7563;SDS011;3823;53.586;10.040;2022-12-18T04:06:34;14.50;;;10.10;;
7563;SDS011;3823;53.586;10.040;2022-12-18T04:09:02;14.43;;;9.53;;
7563;SDS011;3823;53.586;10.040;2022-12-18T04:11:29;17.00;;;11.10;;
7563;SDS011;3823;53.586;10.040;2022-12-18T04:13:55;15.60;;;10.13;;
7563;SDS011;3823;53.586;10.040;2022-12-18T04:16:22;20.03;;;11.63;;
7563;SDS011;3823;53.586;10.040;2022-12-18T04:18:51;19.40;;;10.20;;
7563;SDS011;3823;53.586;10.040;2022-12-18T04:21:17;17.37;;;11.20;;
7563;SDS011;3823;53.586;10.040;2022-12-18T04:23:43;21.17;;;10.87;;
7563;SDS011;3823;53.586;10.040;2022-12-18T04:26:09;15.40;;;11.40;;
7563;SDS011;3823;53.586;10.040;2022-12-18T04:28:34;24.70;;;10.40;;
7563;SDS011;3823;53.586;10.040;2022-12-18T04:31:01;18.37;;;10.67;;
7563;SDS011;3823;53.586;10.040;2022-12-18T04:33:27;16.77;;;10.57;;
7563;SDS011;3823;53.586;10.040;2022-12-18T04:35:52;17.80;;;10.00;;
7563;SDS011;3823;53.586;10.040;2022-12-18T04:38:18;16.63;;;10.00;;
7563;SDS011;3823;53.586;10.040;2022-12-18T04:40:44;17.07;;;10.50;;
7563;SDS011;3823;53.586;10.040;2022-12-18T04:43:09;24.93;;;11.73;;
7563;SDS011;3823;53.586;10.040;2022-12-18T04:45:35;15.70;;;10.00;;
7563;SDS011;3823;53.586;10.040;2022-12-18T04:48:01;16.57;;;9.00;;
7563;SDS011;3823;53.586;10.040;2022-12-18T04:50:27;18.83;;;10.70;;
7563;SDS011;3823;53.586;10.040;2022-12-18T04:52:53;17.37;;;10.70;;
7563;SDS011;3823;53.586;10.040;2022-12-18T04:55:19;19.47;;;10.40;;
7563;SDS011;3823;53.586;10.040;2022-12-18T04:57:45;14.20;;;9.90;;
7563;SDS011;3823;53.586;10.040;2022-12-18T05:00:11;19.23;;;10.80;;
7563;SDS011;3823;53.586;10.040;2022-12-18T05:02:37;17.70;;;9.83;;
7563;SDS011;3823;53.586;10.040;2022-12-18T05:05:03;16.43;;;10.73;;
7563;SDS011;3823;53.586;10.040;2022-12-18T05:07:29;19.60;;;11.43;;
7563;SDS011;3823;53.586;10.040;2022-12-18T05:09:55;17.27;;;10.00;;
7563;SDS011;3823;53.586;10.040;2022-12-18T05:12:20;27.23;;;10.90;;
7563;SDS011;3823;53.586;10.040;2022-12-18T05:14:46;19.03;;;10.67;;
7563;SDS011;3823;53.586;10.040;2022-12-18T05:17:11;20.20;;;11.33;;
7563;SDS011;3823;53.586;10.040;2022-12-18T05:19:37;16.77;;;10.23;;
7563;SDS011;3823;53.586;10.040;2022-12-18T05:22:02;19.43;;;10.53;;
7563;SDS011;3823;53.586;10.040;2022-12-18T05:24:28;15.37;;;10.50;;
7563;SDS011;3823;53.586;10.040;2022-12-18T05:26:54;16.43;;;10.07;;
7563;SDS011;3823;53.586;10.040;2022-12-18T05:29:19;18.97;;;10.53;;
7563;SDS011;3823;53.586;10.040;2022-12-18T05:31:45;22.83;;;10.80;;
7563;SDS011;3823;53.586;10.040;2022-12-18T05:34:10;15.03;;;10.37;;
7563;SDS011;3823;53.586;10.040;2022-12-18T05:36:36;19.60;;;10.10;;
7563;SDS011;3823;53.586;10.040;2022-12-18T05:39:02;13.77;;;8.53;;
7563;SDS011;3823;53.586;10.040;2022-12-18T05:41:28;20.73;;;11.10;;
7563;SDS011;3823;53.586;10.040;2022-12-18T05:43:53;18.20;;;9.70;;
7563;SDS011;3823;53.586;10.040;2022-12-18T05:46:19;18.20;;;10.30;;
7563;SDS011;3823;53.586;10.040;2022-12-18T05:48:45;26.73;;;10.40;;
7563;SDS011;3823;53.586;10.040;2022-12-18T05:51:12;16.10;;;10.10;;
7563;SDS011;3823;53.586;10.040;2022-12-18T05:53:39;14.03;;;9.80;;
7563;SDS011;3823;53.586;10.040;2022-12-18T05:56:07;16.03;;;11.07;;
7563;SDS011;3823;53.586;10.040;2022-12-18T05:58:34;17.13;;;11.37;;
7563;SDS011;3823;53.586;10.040;2022-12-18T06:01:11;18.37;;;11.50;;
7563;SDS011;3823;53.586;10.040;2022-12-18T06:03:39;15.07;;;9.83;;
7563;SDS011;3823;53.586;10.040;2022-12-18T06:06:12;23.70;;;11.37;;
7563;SDS011;3823;53.586;10.040;2022-12-18T06:08:38;17.67;;;12.17;;
7563;SDS011;3823;53.586;10.040;2022-12-18T06:11:05;17.37;;;11.00;;
7563;SDS011;3823;53.586;10.040;2022-12-18T06:13:30;17.60;;;10.47;;
7563;SDS011;3823;53.586;10.040;2022-12-18T06:15:56;23.40;;;11.60;;
7563;SDS011;3823;53.586;10.040;2022-12-18T06:18:21;21.50;;;10.80;;
7563;SDS011;3823;53.586;10.040;2022-12-18T06:20:54;19.50;;;10.30;;
7563;SDS011;3823;53.586;10.040;2022-12-18T06:23:21;20.63;;;11.80;;
7563;SDS011;3823;53.586;10.040;2022-12-18T06:25:46;23.03;;;11.00;;
7563;SDS011;3823;53.586;10.040;2022-12-18T06:28:12;20.77;;;11.77;;
7563;SDS011;3823;53.586;10.040;2022-12-18T06:30:37;18.27;;;10.93;;
7563;SDS011;3823;53.586;10.040;2022-12-18T06:33:03;27.83;;;12.67;;
7563;SDS011;3823;53.586;10.040;2022-12-18T06:35:28;22.33;;;15.20;;
7563;SDS011;3823;53.586;10.040;2022-12-18T06:37:55;20.23;;;11.60;;
7563;SDS011;3823;53.586;10.040;2022-12-18T06:40:20;27.30;;;13.97;;
7563;SDS011;3823;53.586;10.040;2022-12-18T06:42:46;21.20;;;11.47;;
7563;SDS011;3823;53.586;10.040;2022-12-18T06:45:11;24.10;;;11.93;;
7563;SDS011;3823;53.586;10.040;2022-12-18T06:47:40;21.30;;;12.50;;
7563;SDS011;3823;53.586;10.040;2022-12-18T06:50:06;19.67;;;11.77;;
7563;SDS011;3823;53.586;10.040;2022-12-18T06:52:32;18.83;;;10.13;;
7563;SDS011;3823;53.586;10.040;2022-12-18T06:54:58;21.30;;;12.10;;
7563;SDS011;3823;53.586;10.040;2022-12-18T06:57:24;20.30;;;12.53;;
7563;SDS011;3823;53.586;10.040;2022-12-18T06:59:49;21.00;;;11.67;;
7563;SDS011;3823;53.586;10.040;2022-12-18T07:02:15;30.27;;;12.47;;
7563;SDS011;3823;53.586;10.040;2022-12-18T07:04:40;20.03;;;12.77;;
7563;SDS011;3823;53.586;10.040;2022-12-18T07:07:06;22.70;;;13.27;;
7563;SDS011;3823;53.586;10.040;2022-12-18T07:09:31;22.23;;;11.97;;
7563;SDS011;3823;53.586;10.040;2022-12-18T07:11:57;18.50;;;11.80;;
7563;SDS011;3823;53.586;10.040;2022-12-18T07:14:22;19.30;;;11.80;;
7563;SDS011;3823;53.586;10.040;2022-12-18T07:16:48;29.97;;;12.40;;
7563;SDS011;3823;53.586;10.040;2022-12-18T07:19:13;20.90;;;11.27;;
7563;SDS011;3823;53.586;10.040;2022-12-18T07:21:39;22.13;;;12.47;;
7563;SDS011;3823;53.586;10.040;2022-12-18T07:24:05;23.50;;;10.77;;
7563;SDS011;3823;53.586;10.040;2022-12-18T07:26:30;26.60;;;13.07;;
7563;SDS011;3823;53.586;10.040;2022-12-18T07:28:56;24.20;;;13.27;;
7563;SDS011;3823;53.586;10.040;2022-12-18T07:31:22;23.27;;;12.63;;
7563;SDS011;3823;53.586;10.040;2022-12-18T07:33:49;24.87;;;12.00;;
7563;SDS011;3823;53.586;10.040;2022-12-18T07:36:15;24.93;;;11.90;;
7563;SDS011;3823;53.586;10.040;2022-12-18T07:38:41;25.80;;;12.47;;
7563;SDS011;3823;53.586;10.040;2022-12-18T07:41:07;21.40;;;12.30;;
7563;SDS011;3823;53.586;10.040;2022-12-18T07:43:35;23.70;;;13.30;;
7563;SDS011;3823;53.586;10.040;2022-12-18T07:46:01;17.37;;;11.50;;
7563;SDS011;3823;53.586;10.040;2022-12-18T07:48:30;24.20;;;12.90;;
7563;SDS011;3823;53.586;10.040;2022-12-18T07:50:59;20.13;;;11.93;;
7563;SDS011;3823;53.586;10.040;2022-12-18T07:53:26;20.33;;;11.60;;
7563;SDS011;3823;53.586;10.040;2022-12-18T07:55:58;22.00;;;12.30;;
7563;SDS011;3823;53.586;10.040;2022-12-18T07:58:25;21.57;;;12.47;;
7563;SDS011;3823;53.586;10.040;2022-12-18T08:00:51;20.80;;;12.80;;
7563;SDS011;3823;53.586;10.040;2022-12-18T08:03:17;20.40;;;12.97;;
7563;SDS011;3823;53.586;10.040;2022-12-18T08:05:43;21.90;;;11.37;;
7563;SDS011;3823;53.586;10.040;2022-12-18T08:08:08;20.67;;;11.63;;
7563;SDS011;3823;53.586;10.040;2022-12-18T08:10:34;24.03;;;13.30;;
7563;SDS011;3823;53.586;10.040;2022-12-18T08:12:59;19.07;;;12.17;;
7563;SDS011;3823;53.586;10.040;2022-12-18T08:15:25;18.30;;;12.27;;
7563;SDS011;3823;53.586;10.040;2022-12-18T08:17:50;19.43;;;11.80;;
7563;SDS011;3823;53.586;10.040;2022-12-18T08:20:16;23.03;;;12.30;;
7563;SDS011;3823;53.586;10.040;2022-12-18T08:22:43;21.50;;;13.43;;
7563;SDS011;3823;53.586;10.040;2022-12-18T08:25:09;19.83;;;12.47;;
7563;SDS011;3823;53.586;10.040;2022-12-18T08:27:35;25.93;;;13.17;;
7563;SDS011;3823;53.586;10.040;2022-12-18T08:30:01;23.33;;;13.80;;
7563;SDS011;3823;53.586;10.040;2022-12-18T08:32:28;26.40;;;13.90;;
7563;SDS011;3823;53.586;10.040;2022-12-18T08:34:53;24.83;;;13.13;;
7563;SDS011;3823;53.586;10.040;2022-12-18T08:37:19;23.30;;;11.83;;
7563;SDS011;3823;53.586;10.040;2022-12-18T08:39:44;17.67;;;11.10;;
7563;SDS011;3823;53.586;10.040;2022-12-18T08:42:10;19.67;;;12.27;;
7563;SDS011;3823;53.586;10.040;2022-12-18T08:44:54;36.97;;;12.97;;
7563;SDS011;3823;53.586;10.040;2022-12-18T08:47:20;32.70;;;13.73;;
7563;SDS011;3823;53.586;10.040;2022-12-18T08:49:45;22.30;;;13.80;;
7563;SDS011;3823;53.586;10.040;2022-12-18T08:52:11;23.23;;;13.13;;
7563;SDS011;3823;53.586;10.040;2022-12-18T08:54:36;28.70;;;14.67;;
7563;SDS011;3823;53.586;10.040;2022-12-18T08:57:02;22.63;;;12.73;;
7563;SDS011;3823;53.586;10.040;2022-12-18T08:59:27;24.30;;;12.60;;
7563;SDS011;3823;53.586;10.040;2022-12-18T09:01:53;19.83;;;13.07;;
7563;SDS011;3823;53.586;10.040;2022-12-18T09:04:20;19.00;;;11.90;;
7563;SDS011;3823;53.586;10.040;2022-12-18T09:06:45;21.43;;;12.70;;
7563;SDS011;3823;53.586;10.040;2022-12-18T09:09:11;24.13;;;14.20;;
7563;SDS011;3823;53.586;10.040;2022-12-18T09:11:37;19.93;;;12.10;;
7563;SDS011;3823;53.586;10.040;2022-12-18T09:14:02;20.93;;;12.40;;
7563;SDS011;3823;53.586;10.040;2022-12-18T09:16:29;26.47;;;12.27;;
7563;SDS011;3823;53.586;10.040;2022-12-18T09:18:56;23.40;;;12.77;;
7563;SDS011;3823;53.586;10.040;2022-12-18T09:21:25;21.20;;;12.60;;
7563;SDS011;3823;53.586;10.040;2022-12-18T09:23:59;15.30;;;10.20;;
7563;SDS011;3823;53.586;10.040;2022-12-18T09:26:25;18.43;;;12.23;;
7563;SDS011;3823;53.586;10.040;2022-12-18T09:28:51;21.07;;;12.37;;
7563;SDS011;3823;53.586;10.040;2022-12-18T09:31:18;22.13;;;13.30;;
7563;SDS011;3823;53.586;10.040;2022-12-18T09:33:46;21.87;;;12.73;;
7563;SDS011;3823;53.586;10.040;2022-12-18T09:36:12;20.23;;;13.07;;
7563;SDS011;3823;53.586;10.040;2022-12-18T09:38:45;23.43;;;12.70;;
7563;SDS011;3823;53.586;10.040;2022-12-18T09:46:50;17.23;;;10.90;;
7563;SDS011;3823;53.586;10.040;2022-12-18T09:49:20;20.13;;;12.13;;
7563;SDS011;3823;53.586;10.040;2022-12-18T09:54:42;20.93;;;12.20;;
7563;SDS011;3823;53.586;10.040;2022-12-18T09:57:18;18.37;;;11.60;;
7563;SDS011;3823;53.586;10.040;2022-12-18T09:59:53;20.60;;;12.20;;
7563;SDS011;3823;53.586;10.040;2022-12-18T10:02:26;18.43;;;11.43;;
7563;SDS011;3823;53.586;10.040;2022-12-18T10:05:03;17.73;;;10.87;;
7563;SDS011;3823;53.586;10.040;2022-12-18T10:10:27;15.97;;;11.00;;
7563;SDS011;3823;53.586;10.040;2022-12-18T10:13:15;22.73;;;11.50;;
7563;SDS011;3823;53.586;10.040;2022-12-18T10:16:00;20.70;;;11.13;;
7563;SDS011;3823;53.586;10.040;2022-12-18T10:21:23;21.70;;;12.40;;
7563;SDS011;3823;53.586;10.040;2022-12-18T10:24:04;19.47;;;12.33;;
7563;SDS011;3823;53.586;10.040;2022-12-18T10:26:39;24.80;;;11.03;;
7563;SDS011;3823;53.586;10.040;2022-12-18T10:29:13;18.77;;;11.73;;
7563;SDS011;3823;53.586;10.040;2022-12-18T10:31:39;19.37;;;11.77;;
7563;SDS011;3823;53.586;10.040;2022-12-18T10:34:11;20.80;;;11.83;;
7563;SDS011;3823;53.586;10.040;2022-12-18T10:36:39;19.67;;;12.83;;
7563;SDS011;3823;53.586;10.040;2022-12-18T10:39:15;20.43;;;12.40;;
7563;SDS011;3823;53.586;10.040;2022-12-18T10:41:46;23.50;;;12.17;;
7563;SDS011;3823;53.586;10.040;2022-12-18T10:46:46;22.40;;;13.10;;
7563;SDS011;3823;53.586;10.040;2022-12-18T10:49:19;27.00;;;12.30;;
7563;SDS011;3823;53.586;10.040;2022-12-18T10:51:48;22.70;;;11.37;;
7563;SDS011;3823;53.586;10.040;2022-12-18T10:54:19;23.43;;;12.07;;
7563;SDS011;3823;53.586;10.040;2022-12-18T10:56:47;21.67;;;12.23;;
7563;SDS011;3823;53.586;10.040;2022-12-18T10:59:14;21.50;;;12.67;;
7563;SDS011;3823;53.586;10.040;2022-12-18T11:01:53;16.13;;;10.60;;
7563;SDS011;3823;53.586;10.040;2022-12-18T11:04:22;18.53;;;11.40;;
7563;SDS011;3823;53.586;10.040;2022-12-18T11:09:33;20.23;;;11.83;;
7563;SDS011;3823;53.586;10.040;2022-12-18T11:12:24;20.43;;;12.30;;
7563;SDS011;3823;53.586;10.040;2022-12-18T11:14:49;25.20;;;13.10;;
7563;SDS011;3823;53.586;10.040;2022-12-18T11:17:21;21.97;;;11.20;;
7563;SDS011;3823;53.586;10.040;2022-12-18T11:19:53;23.47;;;12.53;;
7563;SDS011;3823;53.586;10.040;2022-12-18T11:22:23;18.10;;;11.23;;
7563;SDS011;3823;53.586;10.040;2022-12-18T11:24:58;20.70;;;10.83;;
7563;SDS011;3823;53.586;10.040;2022-12-18T11:27:51;18.47;;;11.30;;
7563;SDS011;3823;53.586;10.040;2022-12-18T11:32:45;22.83;;;12.50;;
7563;SDS011;3823;53.586;10.040;2022-12-18T11:35:47;21.30;;;12.33;;
7563;SDS011;3823;53.586;10.040;2022-12-18T11:38:32;25.47;;;13.37;;
7563;SDS011;3823;53.586;10.040;2022-12-18T11:41:13;19.00;;;11.57;;
7563;SDS011;3823;53.586;10.040;2022-12-18T11:44:15;18.33;;;11.47;;
7563;SDS011;3823;53.586;10.040;2022-12-18T11:47:15;21.90;;;12.37;;
7563;SDS011;3823;53.586;10.040;2022-12-18T11:50:05;21.03;;;12.23;;
7563;SDS011;3823;53.586;10.040;2022-12-18T11:52:43;23.73;;;12.30;;
7563;SDS011;3823;53.586;10.040;2022-12-18T11:55:13;19.30;;;11.73;;
7563;SDS011;3823;53.586;10.040;2022-12-18T11:57:44;25.13;;;13.57;;
7563;SDS011;3823;53.586;10.040;2022-12-18T12:00:18;20.60;;;13.00;;
7563;SDS011;3823;53.586;10.040;2022-12-18T12:05:31;19.30;;;13.10;;
7563;SDS011;3823;53.586;10.040;2022-12-18T12:08:18;23.83;;;12.80;;
7563;SDS011;3823;53.586;10.040;2022-12-18T12:11:49;23.73;;;13.50;;
7563;SDS011;3823;53.586;10.040;2022-12-18T12:16:34;19.53;;;12.27;;
7563;SDS011;3823;53.586;10.040;2022-12-18T12:22:08;22.23;;;12.43;;
7563;SDS011;3823;53.586;10.040;2022-12-18T12:24:38;23.73;;;11.67;;
7563;SDS011;3823;53.586;10.040;2022-12-18T12:32:59;19.10;;;10.60;;
7563;SDS011;3823;53.586;10.040;2022-12-18T12:35:42;20.47;;;10.60;;
7563;SDS011;3823;53.586;10.040;2022-12-18T12:38:33;22.77;;;11.17;;
7563;SDS011;3823;53.586;10.040;2022-12-18T12:41:06;19.77;;;11.20;;
7563;SDS011;3823;53.586;10.040;2022-12-18T12:43:55;27.43;;;11.30;;
7563;SDS011;3823;53.586;10.040;2022-12-18T12:46:25;22.83;;;11.27;;
7563;SDS011;3823;53.586;10.040;2022-12-18T12:49:03;26.83;;;12.07;;
7563;SDS011;3823;53.586;10.040;2022-12-18T12:51:36;18.33;;;10.73;;
7563;SDS011;3823;53.586;10.040;2022-12-18T12:54:06;20.40;;;11.43;;
7563;SDS011;3823;53.586;10.040;2022-12-18T12:56:57;22.07;;;12.07;;
7563;SDS011;3823;53.586;10.040;2022-12-18T13:05:33;25.10;;;10.80;;
7563;SDS011;3823;53.586;10.040;2022-12-18T13:08:24;26.73;;;11.37;;
7563;SDS011;3823;53.586;10.040;2022-12-18T13:10:51;23.07;;;10.90;;
7563;SDS011;3823;53.586;10.040;2022-12-18T13:13:48;26.13;;;11.77;;
7563;SDS011;3823;53.586;10.040;2022-12-18T13:16:25;17.83;;;10.50;;
7563;SDS011;3823;53.586;10.040;2022-12-18T13:18:53;26.97;;;12.20;;
7563;SDS011;3823;53.586;10.040;2022-12-18T13:21:28;16.10;;;10.73;;
7563;SDS011;3823;53.586;10.040;2022-12-18T13:23:56;25.17;;;11.50;;
7563;SDS011;3823;53.586;10.040;2022-12-18T13:34:18;25.07;;;11.87;;
7563;SDS011;3823;53.586;10.040;2022-12-18T13:36:45;30.83;;;13.50;;
7563;SDS011;3823;53.586;10.040;2022-12-18T13:41:48;22.90;;;11.50;;
7563;SDS011;3823;53.586;10.040;2022-12-18T13:44:23;21.67;;;11.57;;
7563;SDS011;3823;53.586;10.040;2022-12-18T13:46:53;26.17;;;10.93;;
7563;SDS011;3823;53.586;10.040;2022-12-18T13:49:36;27.07;;;12.43;;
7563;SDS011;3823;53.586;10.040;2022-12-18T13:52:16;28.67;;;12.17;;
7563;SDS011;3823;53.586;10.040;2022-12-18T13:54:47;22.47;;;12.07;;
7563;SDS011;3823;53.586;10.040;2022-12-18T13:57:25;21.80;;;11.47;;
7563;SDS011;3823;53.586;10.040;2022-12-18T13:59:55;25.00;;;11.40;;
7563;SDS011;3823;53.586;10.040;2022-12-18T14:02:23;22.13;;;11.57;;
7563;SDS011;3823;53.586;10.040;2022-12-18T14:04:50;28.53;;;13.07;;
7563;SDS011;3823;53.586;10.040;2022-12-18T14:07:17;28.50;;;13.47;;
7563;SDS011;3823;53.586;10.040;2022-12-18T14:09:49;34.63;;;15.90;;
7563;SDS011;3823;53.586;10.040;2022-12-18T14:12:24;30.37;;;13.73;;
7563;SDS011;3823;53.586;10.040;2022-12-18T14:15:24;27.30;;;12.90;;
7563;SDS011;3823;53.586;10.040;2022-12-18T14:17:53;35.70;;;14.40;;
7563;SDS011;3823;53.586;10.040;2022-12-18T14:20:32;27.53;;;13.60;;
7563;SDS011;3823;53.586;10.040;2022-12-18T14:22:59;34.73;;;13.83;;
7563;SDS011;3823;53.586;10.040;2022-12-18T14:25:28;30.53;;;15.60;;
7563;SDS011;3823;53.586;10.040;2022-12-18T14:30:41;28.23;;;12.47;;
7563;SDS011;3823;53.586;10.040;2022-12-18T14:35:34;38.57;;;14.77;;
7563;SDS011;3823;53.586;10.040;2022-12-18T14:38:48;30.97;;;13.93;;
7563;SDS011;3823;53.586;10.040;2022-12-18T14:41:09;31.07;;;14.17;;
7563;SDS011;3823;53.586;10.040;2022-12-18T14:43:37;36.93;;;15.17;;
7563;SDS011;3823;53.586;10.040;2022-12-18T14:51:56;30.30;;;14.57;;
7563;SDS011;3823;53.586;10.040;2022-12-18T14:54:27;30.17;;;13.63;;
7563;SDS011;3823;53.586;10.040;2022-12-18T14:57:04;30.30;;;15.67;;
7563;SDS011;3823;53.586;10.040;2022-12-18T14:59:41;39.20;;;16.47;;
7563;SDS011;3823;53.586;10.040;2022-12-18T15:02:15;30.40;;;14.10;;
7563;SDS011;3823;53.586;10.040;2022-12-18T15:04:48;35.10;;;15.43;;
7563;SDS011;3823;53.586;10.040;2022-12-18T15:07:26;33.03;;;14.73;;
7563;SDS011;3823;53.586;10.040;2022-12-18T15:10:03;35.73;;;15.77;;
7563;SDS011;3823;53.586;10.040;2022-12-18T15:12:33;41.77;;;16.60;;
7563;SDS011;3823;53.586;10.040;2022-12-18T15:15:05;38.63;;;15.53;;
7563;SDS011;3823;53.586;10.040;2022-12-18T15:17:56;28.53;;;12.80;;
7563;SDS011;3823;53.586;10.040;2022-12-18T15:20:25;35.63;;;16.00;;
7563;SDS011;3823;53.586;10.040;2022-12-18T15:22:51;37.57;;;15.47;;
7563;SDS011;3823;53.586;10.040;2022-12-18T15:25:33;32.57;;;15.70;;
7563;SDS011;3823;53.586;10.040;2022-12-18T15:28:04;28.77;;;14.40;;
7563;SDS011;3823;53.586;10.040;2022-12-18T15:30:57;41.37;;;15.23;;
7563;SDS011;3823;53.586;10.040;2022-12-18T15:33:32;30.17;;;15.60;;
7563;SDS011;3823;53.586;10.040;2022-12-18T15:36:00;40.70;;;16.63;;
7563;SDS011;3823;53.586;10.040;2022-12-18T15:38:27;30.47;;;14.30;;
7563;SDS011;3823;53.586;10.040;2022-12-18T15:40:53;40.40;;;17.33;;
7563;SDS011;3823;53.586;10.040;2022-12-18T15:43:22;29.93;;;14.50;;
7563;SDS011;3823;53.586;10.040;2022-12-18T15:46:02;32.60;;;15.53;;
7563;SDS011;3823;53.586;10.040;2022-12-18T15:48:48;34.50;;;15.27;;
7563;SDS011;3823;53.586;10.040;2022-12-18T15:51:24;32.90;;;15.07;;
7563;SDS011;3823;53.586;10.040;2022-12-18T15:53:54;30.37;;;14.57;;
7563;SDS011;3823;53.586;10.040;2022-12-18T15:56:22;34.77;;;15.83;;
7563;SDS011;3823;53.586;10.040;2022-12-18T15:59:14;34.83;;;13.07;;
7563;SDS011;3823;53.586;10.040;2022-12-18T16:01:42;28.03;;;15.20;;
7563;SDS011;3823;53.586;10.040;2022-12-18T16:04:13;37.80;;;16.10;;
7563;SDS011;3823;53.586;10.040;2022-12-18T16:06:41;33.43;;;12.57;;
7563;SDS011;3823;53.586;10.040;2022-12-18T16:09:07;28.73;;;14.20;;
7563;SDS011;3823;53.586;10.040;2022-12-18T16:11:33;31.17;;;14.57;;
7563;SDS011;3823;53.586;10.040;2022-12-18T16:14:14;31.97;;;13.73;;
7563;SDS011;3823;53.586;10.040;2022-12-18T16:16:49;31.60;;;14.87;;
7563;SDS011;3823;53.586;10.040;2022-12-18T16:19:16;30.80;;;14.50;;
7563;SDS011;3823;53.586;10.040;2022-12-18T16:21:42;31.03;;;14.93;;
7563;SDS011;3823;53.586;10.040;2022-12-18T16:24:18;35.47;;;14.93;;
7563;SDS011;3823;53.586;10.040;2022-12-18T16:26:47;160.03;;;64.07;;